Time;durP1;ratioP1;P1;durP2;ratioP2;P2;SDS_P1;SDS_P2;PMS_P1;PMS_P2;Temp;Humidity;BMP_temperature;BMP_pressure;BME280_temperature;BME280_humidity;BME280_pressure;Samples;Min_cycle;Max_cycle;Signal;HPM_P1;HPM_P2
2023/09/27 00:01:04;;;;;;;8.50;6.30;;;;;;;;;;5050079;28;20409;-72
2023/09/27 00:03:31;;;;;;;10.02;6.57;;;;;;;;;;5050218;28;20152;-72
2023/09/27 00:05:57;;;;;;;8.70;6.30;;;;;;;;;;5048242;28;20123;-72
2023/09/27 00:08:24;;;;;;;8.07;6.13;;;;;;;;;;5049720;28;20049;-72
2023/09/27 00:10:50;;;;;;;7.57;5.68;;;;;;;;;;5054178;28;20045;-72
2023/09/27 00:13:18;;;;;;;9.10;6.60;;;;;;;;;;5055334;28;20041;-72
2023/09/27 00:15:45;;;;;;;7.30;5.80;;;;;;;;;;5046512;28;20049;-72
2023/09/27 00:18:12;;;;;;;7.63;6.55;;;;;;;;;;5044963;28;20092;-72
2023/09/27 00:20:39;;;;;;;7.97;5.78;;;;;;;;;;5049449;28;20055;-72
2023/09/27 00:23:06;;;;;;;8.02;6.10;;;;;;;;;;5052240;28;20052;-71
2023/09/27 00:25:32;;;;;;;6.63;5.60;;;;;;;;;;5051995;28;20045;-72
2023/09/27 00:27:59;;;;;;;7.35;5.57;;;;;;;;;;5051981;28;20071;-72
2023/09/27 00:30:27;;;;;;;9.15;6.57;;;;;;;;;;5044903;28;20044;-72
2023/09/27 00:32:54;;;;;;;9.25;5.97;;;;;;;;;;5046973;28;20118;-72
2023/09/27 00:35:22;;;;;;;6.72;5.80;;;;;;;;;;5048080;28;20090;-72
2023/09/27 00:37:49;;;;;;;9.45;5.60;;;;;;;;;;5046689;28;20427;-72
2023/09/27 00:40:18;;;;;;;10.43;6.38;;;;;;;;;;5058911;28;20071;-72
2023/09/27 00:42:44;;;;;;;6.22;5.50;;;;;;;;;;5050857;28;20091;-72
2023/09/27 00:45:11;;;;;;;9.32;5.63;;;;;;;;;;5046555;28;20084;-72
2023/09/27 00:47:39;;;;;;;7.47;6.20;;;;;;;;;;5051671;28;20045;-72
2023/09/27 00:50:08;;;;;;;10.73;5.95;;;;;;;;;;5054126;28;20048;-72
2023/09/27 00:52:35;;;;;;;6.88;5.68;;;;;;;;;;5049877;28;20091;-72
2023/09/27 00:55:02;;;;;;;9.32;6.90;;;;;;;;;;5044679;28;20052;-72
2023/09/27 00:57:29;;;;;;;7.82;6.22;;;;;;;;;;5050905;28;20056;-72
2023/09/27 00:59:56;;;;;;;8.90;6.22;;;;;;;;;;5045570;28;20417;-72
2023/09/27 01:02:23;;;;;;;8.32;6.35;;;;;;;;;;5043526;28;20046;-72
2023/09/27 01:04:51;;;;;;;7.80;6.50;;;;;;;;;;5043281;28;20049;-72
2023/09/27 01:07:18;;;;;;;9.43;7.20;;;;;;;;;;5057816;28;20055;-72
2023/09/27 01:09:44;;;;;;;8.93;6.18;;;;;;;;;;5053521;28;20041;-72
2023/09/27 01:12:11;;;;;;;12.05;6.50;;;;;;;;;;5046282;28;20051;-72
2023/09/27 01:14:38;;;;;;;7.72;6.13;;;;;;;;;;5046339;28;20072;-72
2023/09/27 01:17:10;;;;;;;8.68;6.35;;;;;;;;;;5048910;28;20047;-72
2023/09/27 01:19:38;;;;;;;12.68;7.38;;;;;;;;;;5049260;28;20488;-72
2023/09/27 01:22:06;;;;;;;10.75;7.18;;;;;;;;;;5049673;28;20045;-72
2023/09/27 01:24:36;;;;;;;9.35;6.55;;;;;;;;;;5048239;28;20045;-72
2023/09/27 01:27:05;;;;;;;11.77;7.03;;;;;;;;;;5049534;28;20510;-72
2023/09/27 01:29:32;;;;;;;13.23;8.02;;;;;;;;;;5040561;28;20048;-72
2023/09/27 01:31:57;;;;;;;13.57;7.82;;;;;;;;;;5046387;28;20056;-72
2023/09/27 01:34:24;;;;;;;10.98;6.53;;;;;;;;;;5051668;28;20048;-72
2023/09/27 01:36:51;;;;;;;11.43;7.55;;;;;;;;;;5040394;28;20429;-72
2023/09/27 01:39:18;;;;;;;9.45;7.28;;;;;;;;;;5050531;28;20338;-72
2023/09/27 01:41:46;;;;;;;12.10;7.20;;;;;;;;;;5047045;28;20051;-72
2023/09/27 01:44:12;;;;;;;10.80;7.55;;;;;;;;;;5050321;28;20041;-72
2023/09/27 01:46:39;;;;;;;13.13;7.28;;;;;;;;;;5045113;28;20097;-72
2023/09/27 01:49:05;;;;;;;13.20;7.78;;;;;;;;;;5042745;28;20080;-72
2023/09/27 01:51:32;;;;;;;13.50;7.47;;;;;;;;;;5050378;28;20044;-73
2023/09/27 01:53:58;;;;;;;12.23;7.05;;;;;;;;;;5047143;28;20044;-72
2023/09/27 01:56:25;;;;;;;13.27;7.20;;;;;;;;;;5050030;28;20040;-72
2023/09/27 01:58:52;;;;;;;11.18;7.22;;;;;;;;;;5043559;28;20056;-72
2023/09/27 02:01:19;;;;;;;11.40;7.35;;;;;;;;;;5046341;28;20420;-72
2023/09/27 02:03:45;;;;;;;16.52;7.50;;;;;;;;;;5040942;28;20041;-72
2023/09/27 02:06:12;;;;;;;13.40;7.30;;;;;;;;;;5049484;28;20401;-72
2023/09/27 02:08:38;;;;;;;14.30;7.78;;;;;;;;;;5045658;28;20041;-72
2023/09/27 02:11:05;;;;;;;14.18;7.32;;;;;;;;;;5040804;28;20045;-72
2023/09/27 02:13:31;;;;;;;16.00;8.30;;;;;;;;;;5044923;28;20045;-72
2023/09/27 02:15:59;;;;;;;12.68;7.93;;;;;;;;;;5048539;28;20045;-72
2023/09/27 02:18:26;;;;;;;12.02;8.25;;;;;;;;;;5042601;28;20419;-72
2023/09/27 02:20:53;;;;;;;16.27;8.25;;;;;;;;;;5042734;28;20080;-72
2023/09/27 02:23:20;;;;;;;16.98;8.77;;;;;;;;;;5051110;28;20045;-72
2023/09/27 02:25:56;;;;;;;16.52;8.32;;;;;;;;;;5045919;28;20048;-72
2023/09/27 02:28:22;;;;;;;17.85;8.57;;;;;;;;;;5046283;28;20067;-72
2023/09/27 02:30:49;;;;;;;20.85;8.80;;;;;;;;;;5045387;28;20045;-72
2023/09/27 02:33:17;;;;;;;21.50;9.10;;;;;;;;;;5042039;28;20056;-72
2023/09/27 02:35:44;;;;;;;25.92;9.18;;;;;;;;;;5045067;28;20045;-72
2023/09/27 02:38:11;;;;;;;20.08;9.90;;;;;;;;;;5051175;28;20493;-72
2023/09/27 02:40:38;;;;;;;23.42;9.80;;;;;;;;;;5048444;28;20122;-72
2023/09/27 02:43:05;;;;;;;29.38;8.98;;;;;;;;;;5048831;28;20049;-71
2023/09/27 02:45:32;;;;;;;22.70;9.18;;;;;;;;;;5042391;28;20045;-71
2023/09/27 02:48:02;;;;;;;26.30;10.27;;;;;;;;;;5043456;28;20132;-71
2023/09/27 02:50:29;;;;;;;27.73;9.73;;;;;;;;;;5053443;28;20095;-71
2023/09/27 02:52:56;;;;;;;29.25;9.00;;;;;;;;;;5048482;28;20050;-71
2023/09/27 02:55:22;;;;;;;15.52;9.75;;;;;;;;;;5043853;28;20067;-71
2023/09/27 02:57:50;;;;;;;22.90;9.77;;;;;;;;;;5041725;28;20053;-71
2023/09/27 03:00:18;;;;;;;27.67;9.52;;;;;;;;;;5046718;28;20548;-72
2023/09/27 03:02:45;;;;;;;24.45;9.90;;;;;;;;;;5047511;28;20401;-71
2023/09/27 03:05:12;;;;;;;18.63;8.70;;;;;;;;;;5051603;28;20335;-72
2023/09/27 03:07:40;;;;;;;27.58;9.40;;;;;;;;;;5051587;28;20408;-71
2023/09/27 03:10:10;;;;;;;31.25;8.85;;;;;;;;;;5051835;28;20049;-71
2023/09/27 03:12:38;;;;;;;22.95;8.75;;;;;;;;;;5052303;28;20044;-72
2023/09/27 03:15:10;;;;;;;17.70;9.40;;;;;;;;;;5043447;28;20046;-71
2023/09/27 03:17:36;;;;;;;16.63;8.33;;;;;;;;;;5054359;28;20077;-72
2023/09/27 03:20:05;;;;;;;19.38;8.80;;;;;;;;;;5044031;28;20493;-71
2023/09/27 03:22:31;;;;;;;16.38;7.78;;;;;;;;;;5051266;28;20049;-71
2023/09/27 03:24:59;;;;;;;10.55;7.65;;;;;;;;;;5044422;28;20562;-72
2023/09/27 03:27:26;;;;;;;11.60;7.32;;;;;;;;;;5047245;28;20045;-71
2023/09/27 03:29:52;;;;;;;11.38;8.15;;;;;;;;;;5052231;28;20071;-72
2023/09/27 03:32:19;;;;;;;14.38;8.13;;;;;;;;;;5050114;28;20049;-71
2023/09/27 03:34:46;;;;;;;13.10;7.28;;;;;;;;;;5053738;28;20098;-72
2023/09/27 03:37:14;;;;;;;11.98;8.15;;;;;;;;;;5047226;28;20452;-71
2023/09/27 03:39:41;;;;;;;12.40;7.68;;;;;;;;;;5051744;28;20053;-71
2023/09/27 03:42:08;;;;;;;11.27;7.93;;;;;;;;;;5048097;28;20040;-71
2023/09/27 03:44:35;;;;;;;14.70;7.72;;;;;;;;;;5053847;28;20425;-71
2023/09/27 03:47:02;;;;;;;13.98;8.07;;;;;;;;;;5043085;28;20056;-71
2023/09/27 03:49:28;;;;;;;12.40;8.05;;;;;;;;;;5049553;28;20051;-71
2023/09/27 03:51:55;;;;;;;15.80;7.90;;;;;;;;;;5045918;28;20049;-71
2023/09/27 03:54:22;;;;;;;18.40;7.78;;;;;;;;;;5046872;28;20480;-71
2023/09/27 03:56:48;;;;;;;21.10;8.43;;;;;;;;;;5055156;28;20045;-71
2023/09/27 03:59:16;;;;;;;16.63;7.80;;;;;;;;;;5053557;28;20052;-71
2023/09/27 04:01:43;;;;;;;16.10;7.95;;;;;;;;;;5048938;28;20045;-71
2023/09/27 04:04:09;;;;;;;17.27;8.60;;;;;;;;;;5044713;28;20507;-71
2023/09/27 04:06:36;;;;;;;12.20;8.57;;;;;;;;;;5048213;28;20048;-71
2023/09/27 04:09:02;;;;;;;11.10;7.65;;;;;;;;;;5058615;28;20050;-71
2023/09/27 04:11:29;;;;;;;9.18;6.25;;;;;;;;;;5053528;28;20413;-72
2023/09/27 04:13:55;;;;;;;10.15;6.25;;;;;;;;;;5047932;28;20052;-71
2023/09/27 04:16:26;;;;;;;11.88;6.28;;;;;;;;;;5055305;28;20041;-72
2023/09/27 04:18:52;;;;;;;9.25;6.10;;;;;;;;;;5054568;28;20059;-72
2023/09/27 04:21:19;;;;;;;8.60;5.60;;;;;;;;;;5058110;28;20445;-71
2023/09/27 04:23:54;;;;;;;7.25;5.05;;;;;;;;;;5051527;28;20048;-72
2023/09/27 04:26:20;;;;;;;7.80;5.32;;;;;;;;;;5054524;28;20048;-71
2023/09/27 04:28:47;;;;;;;6.63;5.47;;;;;;;;;;5053434;28;20489;-71
2023/09/27 04:31:13;;;;;;;7.95;5.72;;;;;;;;;;5049568;28;20497;-71
2023/09/27 04:33:44;;;;;;;7.95;5.90;;;;;;;;;;5045391;28;20091;-71
2023/09/27 04:36:15;;;;;;;7.22;5.80;;;;;;;;;;5050990;28;20470;-71
2023/09/27 04:38:41;;;;;;;11.60;6.40;;;;;;;;;;5053168;28;20416;-71
2023/09/27 04:41:08;;;;;;;8.98;6.32;;;;;;;;;;5052451;28;20060;-72
2023/09/27 04:43:35;;;;;;;8.77;6.65;;;;;;;;;;5051854;28;20049;-71
2023/09/27 04:46:02;;;;;;;7.95;6.10;;;;;;;;;;5046589;28;20045;-71
2023/09/27 04:48:29;;;;;;;9.00;5.80;;;;;;;;;;5046425;28;20532;-71
2023/09/27 04:50:59;;;;;;;8.52;6.38;;;;;;;;;;5044341;28;20080;-71
2023/09/27 04:53:25;;;;;;;14.63;6.18;;;;;;;;;;5049823;28;20706;-71
2023/09/27 04:55:53;;;;;;;9.98;6.20;;;;;;;;;;5041791;28;20060;-71
2023/09/27 04:58:20;;;;;;;11.45;6.30;;;;;;;;;;5047391;28;20079;-71
2023/09/27 05:00:47;;;;;;;8.85;6.70;;;;;;;;;;5053428;28;20119;-71
2023/09/27 05:03:13;;;;;;;10.75;6.80;;;;;;;;;;5048030;28;20042;-72
2023/09/27 05:05:40;;;;;;;9.02;6.38;;;;;;;;;;5050639;28;20248;-71
2023/09/27 05:08:08;;;;;;;11.77;6.93;;;;;;;;;;5047881;28;20053;-71
2023/09/27 05:10:34;;;;;;;11.30;6.90;;;;;;;;;;5052112;28;20119;-72
2023/09/27 05:13:01;;;;;;;8.20;5.95;;;;;;;;;;5049547;28;20045;-71
2023/09/27 05:15:28;;;;;;;7.50;6.20;;;;;;;;;;5046699;28;20045;-71
2023/09/27 05:17:54;;;;;;;8.77;6.25;;;;;;;;;;5040939;28;20053;-72
2023/09/27 05:20:22;;;;;;;10.23;6.18;;;;;;;;;;5054886;28;20071;-71
2023/09/27 05:22:48;;;;;;;8.95;5.82;;;;;;;;;;5054549;28;20060;-71
2023/09/27 05:25:17;;;;;;;6.78;5.30;;;;;;;;;;5048743;28;20053;-72
2023/09/27 05:27:44;;;;;;;7.50;5.65;;;;;;;;;;5048464;28;20041;-71
2023/09/27 05:30:11;;;;;;;7.32;5.03;;;;;;;;;;5048968;28;20513;-71
2023/09/27 05:32:38;;;;;;;6.82;4.50;;;;;;;;;;5045670;28;20059;-71
2023/09/27 05:35:05;;;;;;;7.18;4.97;;;;;;;;;;5048148;28;20071;-72
2023/09/27 05:37:32;;;;;;;6.85;5.15;;;;;;;;;;5043564;28;20045;-72
2023/09/27 05:39:59;;;;;;;5.43;4.55;;;;;;;;;;5054934;28;20053;-71
2023/09/27 05:42:26;;;;;;;6.75;4.63;;;;;;;;;;5044433;28;20053;-71
2023/09/27 05:44:53;;;;;;;7.38;4.55;;;;;;;;;;5047531;28;20044;-72
2023/09/27 05:47:20;;;;;;;8.48;5.55;;;;;;;;;;5050592;28;20041;-71
2023/09/27 05:49:47;;;;;;;6.45;4.88;;;;;;;;;;5053804;28;20347;-72
2023/09/27 05:52:16;;;;;;;5.32;4.43;;;;;;;;;;5042638;28;20053;-71
2023/09/27 05:54:44;;;;;;;6.38;4.40;;;;;;;;;;5045592;28;20132;-71
2023/09/27 05:57:11;;;;;;;5.00;4.20;;;;;;;;;;5051240;28;20073;-71
2023/09/27 05:59:40;;;;;;;5.43;4.00;;;;;;;;;;5047763;28;20048;-71
2023/09/27 06:02:07;;;;;;;5.07;4.20;;;;;;;;;;5050580;28;20515;-71
2023/09/27 06:04:34;;;;;;;4.90;3.83;;;;;;;;;;5048090;28;20467;-71
2023/09/27 06:07:01;;;;;;;4.22;3.83;;;;;;;;;;5052123;28;20512;-71
2023/09/27 06:09:27;;;;;;;5.30;4.07;;;;;;;;;;5049213;28;20124;-71
2023/09/27 06:11:54;;;;;;;4.88;3.53;;;;;;;;;;5044625;28;20041;-71
2023/09/27 06:14:21;;;;;;;3.90;3.50;;;;;;;;;;5041565;28;20053;-71
2023/09/27 06:16:50;;;;;;;5.70;3.88;;;;;;;;;;5044169;28;20132;-72
2023/09/27 06:19:17;;;;;;;3.85;3.30;;;;;;;;;;5047390;28;20048;-71
2023/09/27 06:21:44;;;;;;;5.63;3.90;;;;;;;;;;5048468;28;20041;-71
2023/09/27 06:24:10;;;;;;;5.82;3.97;;;;;;;;;;5054326;28;20048;-71
2023/09/27 06:26:37;;;;;;;4.28;3.83;;;;;;;;;;5051269;28;20045;-72
2023/09/27 06:29:03;;;;;;;4.53;3.80;;;;;;;;;;5049855;28;20413;-71
2023/09/27 06:31:30;;;;;;;4.82;3.75;;;;;;;;;;5048222;28;20051;-72
2023/09/27 06:33:58;;;;;;;4.80;4.00;;;;;;;;;;5049681;28;20049;-72
2023/09/27 06:36:27;;;;;;;6.47;4.00;;;;;;;;;;5054433;28;20049;-71
2023/09/27 06:38:54;;;;;;;6.35;4.47;;;;;;;;;;5051003;28;20140;-71
2023/09/27 06:41:20;;;;;;;5.43;4.32;;;;;;;;;;5052461;28;20081;-71
2023/09/27 06:43:47;;;;;;;4.55;3.65;;;;;;;;;;5057257;28;20048;-72
2023/09/27 06:46:15;;;;;;;4.80;3.83;;;;;;;;;;5057252;28;20135;-72
2023/09/27 06:48:43;;;;;;;3.70;3.35;;;;;;;;;;5056556;28;20083;-72
2023/09/27 06:51:11;;;;;;;4.05;3.58;;;;;;;;;;5052196;28;20516;-71
2023/09/27 06:53:38;;;;;;;4.20;3.80;;;;;;;;;;5048489;28;20544;-72
2023/09/27 06:56:05;;;;;;;4.60;3.60;;;;;;;;;;5055111;28;20051;-71
2023/09/27 06:58:32;;;;;;;4.22;3.70;;;;;;;;;;5048387;28;20073;-71
2023/09/27 07:00:58;;;;;;;5.20;3.65;;;;;;;;;;5050068;28;20426;-71
2023/09/27 07:03:27;;;;;;;4.47;3.83;;;;;;;;;;5051190;28;20056;-71
2023/09/27 07:05:54;;;;;;;4.60;3.97;;;;;;;;;;5047614;28;20487;-71
2023/09/27 07:08:22;;;;;;;4.88;4.32;;;;;;;;;;5054431;28;20056;-71
2023/09/27 07:10:49;;;;;;;7.85;4.63;;;;;;;;;;5045643;28;20049;-71
2023/09/27 07:13:15;;;;;;;12.93;5.20;;;;;;;;;;5042805;28;20046;-71
2023/09/27 07:15:45;;;;;;;7.45;4.68;;;;;;;;;;5047517;28;20045;-70
2023/09/27 07:18:12;;;;;;;6.25;4.78;;;;;;;;;;5048714;28;20191;-71
2023/09/27 07:20:40;;;;;;;5.40;4.18;;;;;;;;;;5054269;28;20050;-71
2023/09/27 07:23:07;;;;;;;5.45;4.43;;;;;;;;;;5042658;28;20127;-70
2023/09/27 07:25:37;;;;;;;5.97;4.05;;;;;;;;;;5047842;28;20181;-70
2023/09/27 07:28:05;;;;;;;5.10;4.13;;;;;;;;;;5041861;28;20045;-71
2023/09/27 07:30:34;;;;;;;6.13;3.90;;;;;;;;;;5045784;28;20087;-71
2023/09/27 07:33:03;;;;;;;5.22;4.13;;;;;;;;;;5047960;28;20050;-71
2023/09/27 07:35:33;;;;;;;6.93;4.43;;;;;;;;;;5056584;28;20049;-70
2023/09/27 07:38:00;;;;;;;8.20;4.38;;;;;;;;;;5044177;28;20045;-71
2023/09/27 07:40:27;;;;;;;5.07;4.10;;;;;;;;;;5051367;28;20190;-71
2023/09/27 07:42:55;;;;;;;5.65;4.18;;;;;;;;;;5047890;28;20044;-71
2023/09/27 07:45:22;;;;;;;5.13;3.55;;;;;;;;;;5046805;28;20049;-71
2023/09/27 07:47:50;;;;;;;4.05;3.33;;;;;;;;;;5047998;28;20128;-70
2023/09/27 07:50:17;;;;;;;3.58;3.10;;;;;;;;;;5048924;28;20455;-71
2023/09/27 07:52:44;;;;;;;3.58;3.28;;;;;;;;;;5043108;28;20048;-71
2023/09/27 07:55:14;;;;;;;3.90;3.50;;;;;;;;;;5050003;28;20079;-71
2023/09/27 07:57:43;;;;;;;4.63;3.47;;;;;;;;;;5040873;28;20047;-71
2023/09/27 08:00:15;;;;;;;3.88;3.42;;;;;;;;;;5045336;28;20049;-71
2023/09/27 08:02:42;;;;;;;3.95;3.38;;;;;;;;;;5040744;28;20399;-71
2023/09/27 08:05:10;;;;;;;3.80;3.35;;;;;;;;;;5041019;28;20041;-70
2023/09/27 08:07:37;;;;;;;3.70;3.20;;;;;;;;;;5046696;28;20053;-71
2023/09/27 08:10:04;;;;;;;3.55;3.20;;;;;;;;;;5051383;28;20394;-71
2023/09/27 08:12:31;;;;;;;3.97;3.45;;;;;;;;;;5045739;28;20045;-71
2023/09/27 08:14:58;;;;;;;3.75;3.25;;;;;;;;;;5039826;28;20050;-70
2023/09/27 08:17:26;;;;;;;3.40;3.10;;;;;;;;;;5049784;28;20055;-70
2023/09/27 08:19:53;;;;;;;4.28;3.88;;;;;;;;;;5057519;28;20048;-71
2023/09/27 08:22:20;;;;;;;3.67;3.33;;;;;;;;;;5043367;28;20041;-70
2023/09/27 08:24:46;;;;;;;5.25;4.00;;;;;;;;;;5041625;28;20042;-71
2023/09/27 08:27:13;;;;;;;5.30;4.03;;;;;;;;;;5041453;28;20049;-71
2023/09/27 08:29:39;;;;;;;4.47;4.03;;;;;;;;;;5048854;28;20041;-71
2023/09/27 08:32:06;;;;;;;6.82;4.60;;;;;;;;;;5047996;28;20052;-71
2023/09/27 08:34:34;;;;;;;4.88;4.22;;;;;;;;;;5049593;28;20463;-71
2023/09/27 08:37:02;;;;;;;4.88;3.97;;;;;;;;;;5037961;28;20068;-71
2023/09/27 08:39:29;;;;;;;5.82;4.32;;;;;;;;;;5047390;28;20052;-71
2023/09/27 08:41:55;;;;;;;5.05;4.55;;;;;;;;;;5043869;28;20041;-71
2023/09/27 08:44:23;;;;;;;4.60;4.20;;;;;;;;;;5041856;28;20464;-71
2023/09/27 08:46:50;;;;;;;5.28;4.63;;;;;;;;;;5044126;28;20045;-71
2023/09/27 08:49:18;;;;;;;4.35;3.95;;;;;;;;;;5047411;28;20055;-71
2023/09/27 08:51:46;;;;;;;5.53;4.53;;;;;;;;;;5052717;28;20045;-72
2023/09/27 08:54:16;;;;;;;5.05;4.53;;;;;;;;;;5044288;28;20049;-71
2023/09/27 08:56:43;;;;;;;5.30;4.80;;;;;;;;;;5042948;28;20049;-71
2023/09/27 08:59:10;;;;;;;6.93;5.40;;;;;;;;;;5041142;28;20045;-71
2023/09/27 09:01:39;;;;;;;6.68;5.10;;;;;;;;;;5040172;28;20052;-71
2023/09/27 09:04:07;;;;;;;5.70;4.82;;;;;;;;;;5039599;28;20718;-72
2023/09/27 09:06:33;;;;;;;5.13;4.63;;;;;;;;;;5043231;28;20098;-71
2023/09/27 09:09:10;;;;;;;6.53;5.25;;;;;;;;;;5044553;28;20046;-71
2023/09/27 09:11:38;;;;;;;6.05;5.45;;;;;;;;;;5047895;28;20045;-71
2023/09/27 09:14:05;;;;;;;5.68;5.10;;;;;;;;;;5040015;28;20053;-71
2023/09/27 09:16:39;;;;;;;6.35;5.75;;;;;;;;;;5042831;28;20041;-70
2023/09/27 09:19:19;;;;;;;6.13;5.22;;;;;;;;;;5047776;28;20049;-72
2023/09/27 09:21:46;;;;;;;6.43;5.65;;;;;;;;;;5039697;28;20049;-71
2023/09/27 09:24:20;;;;;;;6.60;4.35;;;;;;;;;;5050644;28;20048;-71
2023/09/27 09:26:47;;;;;;;5.53;5.03;;;;;;;;;;5044416;28;20052;-71
2023/09/27 09:29:13;;;;;;;6.10;4.72;;;;;;;;;;5042944;28;20046;-71
2023/09/27 09:31:45;;;;;;;5.40;4.90;;;;;;;;;;5043781;28;20041;-71
2023/09/27 09:34:12;;;;;;;5.03;4.53;;;;;;;;;;5050205;28;20079;-71
2023/09/27 09:36:38;;;;;;;7.50;5.35;;;;;;;;;;5045488;28;20153;-71
2023/09/27 09:39:06;;;;;;;5.75;5.07;;;;;;;;;;5045705;28;20051;-72
2023/09/27 09:41:58;;;;;;;5.35;4.85;;;;;;;;;;5045886;28;20071;-71
2023/09/27 09:44:25;;;;;;;6.20;5.07;;;;;;;;;;5044761;28;20102;-71
2023/09/27 09:46:52;;;;;;;8.88;5.68;;;;;;;;;;5041130;28;20092;-71
2023/09/27 09:49:21;;;;;;;6.05;5.45;;;;;;;;;;5047286;28;20045;-71
2023/09/27 09:51:50;;;;;;;6.32;5.72;;;;;;;;;;5052154;28;20398;-71
2023/09/27 09:54:27;;;;;;;8.00;6.45;;;;;;;;;;5048585;28;20056;-70
2023/09/27 09:56:57;;;;;;;9.43;7.10;;;;;;;;;;5042244;28;20049;-70
2023/09/27 09:59:30;;;;;;;7.90;7.10;;;;;;;;;;5040461;28;20103;-71
2023/09/27 10:02:00;;;;;;;8.35;6.30;;;;;;;;;;5052440;28;20056;-71
2023/09/27 10:04:27;;;;;;;7.75;6.95;;;;;;;;;;5043772;28;20041;-71
2023/09/27 10:06:57;;;;;;;8.07;7.28;;;;;;;;;;5037892;28;20441;-71
2023/09/27 10:09:28;;;;;;;8.38;7.57;;;;;;;;;;5044408;28;20056;-71
2023/09/27 10:11:57;;;;;;;8.50;7.57;;;;;;;;;;5045362;28;20136;-71
2023/09/27 10:14:24;;;;;;;8.00;7.07;;;;;;;;;;5046430;28;20052;-71
2023/09/27 10:16:51;;;;;;;8.40;7.25;;;;;;;;;;5048598;28;20376;-71
2023/09/27 10:19:27;;;;;;;8.63;7.07;;;;;;;;;;5043629;28;20050;-71
2023/09/27 10:22:07;;;;;;;9.57;7.55;;;;;;;;;;5041319;28;20073;-71
2023/09/27 10:24:35;;;;;;;8.90;8.00;;;;;;;;;;5043891;28;20079;-71
2023/09/27 10:27:04;;;;;;;10.15;7.88;;;;;;;;;;5050960;28;20041;-71
2023/09/27 10:29:30;;;;;;;8.80;7.57;;;;;;;;;;5049531;28;20452;-71
2023/09/27 10:32:21;;;;;;;9.38;7.65;;;;;;;;;;5051714;28;20057;-71
2023/09/27 10:34:48;;;;;;;6.80;6.10;;;;;;;;;;5049572;28;20049;-71
2023/09/27 10:37:16;;;;;;;6.70;5.93;;;;;;;;;;5043311;28;20053;-71
2023/09/27 10:40:19;;;;;;;8.52;7.18;;;;;;;;;;5044456;28;20041;-71
2023/09/27 10:42:46;;;;;;;7.07;6.38;;;;;;;;;;5047017;28;20052;-70
2023/09/27 10:45:13;;;;;;;6.03;5.43;;;;;;;;;;5045362;28;20052;-71
2023/09/27 10:47:40;;;;;;;7.50;5.65;;;;;;;;;;5048938;28;20041;-71
2023/09/27 10:50:08;;;;;;;9.43;5.38;;;;;;;;;;5043031;28;20546;-71
2023/09/27 10:52:38;;;;;;;5.85;5.03;;;;;;;;;;5046159;28;20060;-71
2023/09/27 10:55:12;;;;;;;6.40;5.80;;;;;;;;;;5044843;28;20041;-71
2023/09/27 10:57:41;;;;;;;7.05;5.47;;;;;;;;;;5040376;28;20084;-71
2023/09/27 11:00:13;;;;;;;7.60;4.88;;;;;;;;;;5042762;28;20060;-72
2023/09/27 11:02:39;;;;;;;6.80;5.65;;;;;;;;;;5044607;28;20057;-71
2023/09/27 11:05:07;;;;;;;9.93;5.60;;;;;;;;;;5058124;28;20049;-71
2023/09/27 11:07:47;;;;;;;5.80;4.90;;;;;;;;;;5048281;28;20520;-71
2023/09/27 11:10:32;;;;;;;6.28;4.97;;;;;;;;;;5040511;28;20049;-71
2023/09/27 11:13:10;;;;;;;8.95;5.00;;;;;;;;;;5042478;28;20053;-71
2023/09/27 11:15:38;;;;;;;4.85;4.43;;;;;;;;;;5050789;28;20049;-71
2023/09/27 11:18:05;;;;;;;5.72;4.68;;;;;;;;;;5041917;28;20052;-71
2023/09/27 11:20:32;;;;;;;6.68;5.45;;;;;;;;;;5050865;28;20053;-71
2023/09/27 11:22:59;;;;;;;4.93;3.72;;;;;;;;;;5044077;28;20052;-70
2023/09/27 11:25:26;;;;;;;5.40;4.00;;;;;;;;;;5046405;28;20053;-71
2023/09/27 11:27:53;;;;;;;4.15;3.75;;;;;;;;;;5048860;28;20460;-71
2023/09/27 11:30:24;;;;;;;3.75;3.22;;;;;;;;;;5051122;28;20053;-71
2023/09/27 11:32:52;;;;;;;6.03;3.87;;;;;;;;;;5046807;28;20062;-71
2023/09/27 11:35:19;;;;;;;4.50;3.40;;;;;;;;;;5042149;28;20463;-71
2023/09/27 11:37:46;;;;;;;4.28;3.33;;;;;;;;;;5055873;28;20071;-71
2023/09/27 11:40:13;;;;;;;5.50;3.58;;;;;;;;;;5051280;28;20135;-71
2023/09/27 11:42:39;;;;;;;5.93;3.42;;;;;;;;;;5046811;28;20076;-71
2023/09/27 11:45:08;;;;;;;4.70;3.50;;;;;;;;;;5048336;28;20052;-71
2023/09/27 11:47:45;;;;;;;4.72;3.42;;;;;;;;;;5047355;28;20061;-72
2023/09/27 11:50:14;;;;;;;3.92;3.50;;;;;;;;;;5048969;28;20060;-72
2023/09/27 11:52:41;;;;;;;3.63;2.70;;;;;;;;;;5048008;28;20126;-71
2023/09/27 11:55:08;;;;;;;5.40;3.10;;;;;;;;;;5048270;28;20476;-71
2023/09/27 11:57:34;;;;;;;3.70;2.78;;;;;;;;;;5050541;28;20071;-71
2023/09/27 12:00:01;;;;;;;3.25;2.65;;;;;;;;;;5045611;28;20048;-71
2023/09/27 12:02:27;;;;;;;3.28;2.50;;;;;;;;;;5048785;28;20067;-72
2023/09/27 12:04:54;;;;;;;2.47;2.20;;;;;;;;;;5049325;28;20095;-71
2023/09/27 12:07:21;;;;;;;4.35;2.60;;;;;;;;;;5050309;28;20045;-71
2023/09/27 12:09:48;;;;;;;2.53;2.33;;;;;;;;;;5049043;28;20531;-71
2023/09/27 12:12:15;;;;;;;3.67;2.50;;;;;;;;;;5046527;28;20042;-71
2023/09/27 12:14:41;;;;;;;3.15;2.50;;;;;;;;;;5040757;28;20052;-71
2023/09/27 12:17:09;;;;;;;2.45;2.25;;;;;;;;;;5041663;28;20052;-71
2023/09/27 12:19:35;;;;;;;2.85;2.05;;;;;;;;;;5050389;28;20705;-71
2023/09/27 12:22:03;;;;;;;2.80;2.38;;;;;;;;;;5047778;28;20045;-71
2023/09/27 12:24:31;;;;;;;3.55;2.30;;;;;;;;;;5044606;28;20149;-72
2023/09/27 12:26:57;;;;;;;2.60;2.10;;;;;;;;;;5049374;28;20041;-71
2023/09/27 12:29:24;;;;;;;3.45;2.30;;;;;;;;;;5045555;28;20220;-71
2023/09/27 12:31:50;;;;;;;4.95;2.17;;;;;;;;;;5050740;28;20053;-71
2023/09/27 12:34:18;;;;;;;3.10;2.13;;;;;;;;;;5052188;28;20040;-71
2023/09/27 12:36:45;;;;;;;4.28;2.60;;;;;;;;;;5043817;28;20056;-72
2023/09/27 12:39:12;;;;;;;8.60;2.60;;;;;;;;;;5053077;28;20218;-72
2023/09/27 12:41:40;;;;;;;7.03;2.50;;;;;;;;;;5040322;28;20076;-71
2023/09/27 12:44:06;;;;;;;5.00;2.28;;;;;;;;;;5050791;28;20505;-72
2023/09/27 12:46:33;;;;;;;3.47;2.10;;;;;;;;;;5040893;28;20048;-72
2023/09/27 12:49:00;;;;;;;4.63;2.40;;;;;;;;;;5040580;28;20049;-71
2023/09/27 12:51:26;;;;;;;3.40;2.30;;;;;;;;;;5054040;28;20132;-72
2023/09/27 12:53:53;;;;;;;3.72;2.30;;;;;;;;;;5045843;28;20094;-71
2023/09/27 12:56:19;;;;;;;2.72;2.47;;;;;;;;;;5046594;28;20419;-72
2023/09/27 12:58:47;;;;;;;2.40;1.90;;;;;;;;;;5040328;28;20148;-71
2023/09/27 13:01:16;;;;;;;3.03;2.00;;;;;;;;;;5043038;28;20072;-71
2023/09/27 13:03:42;;;;;;;2.45;2.00;;;;;;;;;;5040234;28;20081;-71
2023/09/27 13:06:10;;;;;;;2.58;2.00;;;;;;;;;;5049636;28;20440;-71
2023/09/27 13:08:37;;;;;;;2.78;1.90;;;;;;;;;;5040955;28;20444;-71
2023/09/27 13:11:04;;;;;;;3.28;2.20;;;;;;;;;;5041004;28;20049;-71
2023/09/27 13:13:31;;;;;;;3.33;2.00;;;;;;;;;;5043080;28;20042;-71
2023/09/27 13:15:59;;;;;;;4.78;2.20;;;;;;;;;;5042935;28;20485;-71
2023/09/27 13:18:25;;;;;;;2.50;1.90;;;;;;;;;;5038990;28;20046;-71
2023/09/27 13:20:52;;;;;;;5.20;2.03;;;;;;;;;;5039660;28;20041;-71
2023/09/27 13:23:19;;;;;;;4.85;1.98;;;;;;;;;;5040373;28;20045;-71
2023/09/27 13:25:51;;;;;;;2.75;1.85;;;;;;;;;;5041828;28;20042;-71
2023/09/27 13:28:18;;;;;;;4.30;2.03;;;;;;;;;;5050238;28;20398;-71
2023/09/27 13:30:44;;;;;;;2.30;1.92;;;;;;;;;;5045643;28;20041;-71
2023/09/27 13:33:12;;;;;;;1.70;1.60;;;;;;;;;;5048238;28;20638;-71
2023/09/27 13:35:39;;;;;;;2.97;1.95;;;;;;;;;;5041864;28;20493;-71
2023/09/27 13:38:06;;;;;;;2.13;1.80;;;;;;;;;;5043894;28;20060;-71
2023/09/27 13:40:33;;;;;;;3.53;2.22;;;;;;;;;;5047147;28;20496;-71
2023/09/27 13:42:59;;;;;;;2.95;2.10;;;;;;;;;;5041492;28;20485;-71
2023/09/27 13:45:26;;;;;;;2.50;2.10;;;;;;;;;;5047143;28;20045;-72
2023/09/27 13:47:52;;;;;;;5.38;1.90;;;;;;;;;;5043972;28;20113;-71
2023/09/27 13:50:20;;;;;;;3.90;1.95;;;;;;;;;;5054428;28;20045;-71
2023/09/27 13:52:47;;;;;;;4.22;1.70;;;;;;;;;;5038871;28;20049;-69
2023/09/27 13:55:14;;;;;;;2.95;1.63;;;;;;;;;;5039910;28;20103;-70
2023/09/27 13:57:42;;;;;;;3.78;1.85;;;;;;;;;;5043445;28;20079;-69
2023/09/27 14:00:13;;;;;;;2.95;1.90;;;;;;;;;;5039946;28;20049;-72
2023/09/27 14:02:39;;;;;;;2.50;2.00;;;;;;;;;;5034198;28;20048;-71
2023/09/27 14:05:06;;;;;;;3.83;1.88;;;;;;;;;;5044659;28;20051;-71
2023/09/27 14:07:35;;;;;;;4.45;1.90;;;;;;;;;;5049105;28;20057;-71
2023/09/27 14:10:02;;;;;;;2.95;1.80;;;;;;;;;;5042662;28;20064;-72
2023/09/27 14:12:29;;;;;;;3.65;1.77;;;;;;;;;;5041928;28;20103;-72
2023/09/27 14:14:58;;;;;;;3.13;1.77;;;;;;;;;;5046396;28;20048;-72
2023/09/27 14:17:24;;;;;;;4.78;1.88;;;;;;;;;;5046562;28;20068;-71
2023/09/27 14:19:51;;;;;;;3.55;1.70;;;;;;;;;;5042654;28;20061;-71
2023/09/27 14:22:17;;;;;;;4.82;2.03;;;;;;;;;;5042451;28;20049;-71
2023/09/27 14:24:45;;;;;;;4.57;1.80;;;;;;;;;;5041145;28;20060;-71
2023/09/27 14:27:12;;;;;;;3.45;1.85;;;;;;;;;;5039794;28;20061;-72
2023/09/27 14:29:39;;;;;;;5.50;2.13;;;;;;;;;;5045338;28;20049;-71
2023/09/27 14:32:05;;;;;;;2.97;1.95;;;;;;;;;;5039996;28;20061;-71
2023/09/27 14:34:34;;;;;;;2.25;2.03;;;;;;;;;;5044365;28;20568;-71
2023/09/27 14:37:01;;;;;;;4.63;1.85;;;;;;;;;;5045296;28;20107;-71
2023/09/27 14:39:27;;;;;;;3.30;2.00;;;;;;;;;;5046051;28;20396;-71
2023/09/27 14:41:57;;;;;;;4.13;2.00;;;;;;;;;;5043425;28;20515;-71
2023/09/27 14:44:24;;;;;;;3.75;1.70;;;;;;;;;;5042465;28;20045;-70